Time;durP1;ratioP1;P1;durP2;ratioP2;P2;SDS_P1;SDS_P2;PMS_P1;PMS_P2;Temp;Humidity;BMP_temperature;BMP_pressure;BME280_temperature;BME280_humidity;BME280_pressure;Samples;Min_cycle;Max_cycle;Signal;HPM_P1;HPM_P2
2021/01/04 00:00:23;;;;;;;21.53;17.00;;;;;;;3.13;61.91;94724.88;6964446;28;20725;-70
2021/01/04 00:04:01;;;;;;;24.70;18.53;;;;;;;3.13;62.13;94725.72;6972596;28;20214;-71
2021/01/04 00:07:30;;;;;;;22.73;16.50;;;;;;;3.07;62.34;94720.88;6997496;28;20337;-70
2021/01/04 00:11:21;;;;;;;21.17;16.17;;;;;;;3.05;61.48;94719.31;7009272;28;20640;-71
2021/01/04 00:14:50;;;;;;;21.70;17.30;;;;;;;3.12;62.19;94717.97;6994583;28;20737;-70
2021/01/04 00:19:01;;;;;;;23.33;18.23;;;;;;;3.20;62.03;94711.25;6995265;28;20257;-71
2021/01/04 00:22:44;;;;;;;24.60;18.23;;;;;;;3.25;61.52;94709.16;6948203;28;20214;-70
2021/01/04 00:26:29;;;;;;;21.60;16.73;;;;;;;3.26;61.27;94707.38;6980606;28;20215;-71
2021/01/04 00:29:59;;;;;;;22.17;17.33;;;;;;;3.21;61.78;94712.94;6986082;28;20233;-71
2021/01/04 00:33:32;;;;;;;23.20;17.73;;;;;;;3.18;61.49;94717.53;6977930;28;20232;-70
2021/01/04 00:36:52;;;;;;;23.20;17.83;;;;;;;3.10;61.52;94709.34;6999075;28;20226;-70
2021/01/04 00:40:37;;;;;;;24.57;18.33;;;;;;;3.08;61.90;94708.63;7014952;28;20209;-70
2021/01/04 00:43:58;;;;;;;25.20;20.20;;;;;;;3.10;61.84;94704.94;7010262;27;20219;-71
2021/01/04 00:47:37;;;;;;;28.23;20.17;;;;;;;3.08;61.34;94711.22;6985203;28;20346;-71
2021/01/04 00:51:07;;;;;;;20.80;17.07;;;;;;;3.01;61.55;94714.31;7001769;28;20225;-70
2021/01/04 00:55:05;;;;;;;21.70;17.23;;;;;;;3.07;61.46;94712.19;7006978;27;20220;-70
2021/01/04 00:58:45;;;;;;;23.93;17.87;;;;;;;3.12;61.65;94710.91;6999645;28;20225;-71
2021/01/04 01:02:56;;;;;;;21.63;17.03;;;;;;;3.03;61.82;94708.94;6981243;28;20217;-71
2021/01/04 01:06:49;;;;;;;22.03;17.53;;;;;;;2.91;61.51;94715.88;6955869;28;20303;-71
2021/01/04 01:10:11;;;;;;;26.90;20.03;;;;;;;2.90;62.56;94715.97;7015854;28;20671;-70
2021/01/04 01:14:20;;;;;;;25.60;19.80;;;;;;;2.89;62.18;94720.34;7002481;28;20226;-68
2021/01/04 01:18:08;;;;;;;24.43;18.80;;;;;;;2.82;62.34;94724.31;6945104;28;20218;-70
2021/01/04 01:21:29;;;;;;;26.80;19.77;;;;;;;2.75;62.32;94724.84;7030904;28;20620;-70
2021/01/04 01:24:49;;;;;;;27.00;19.67;;;;;;;2.65;62.70;94734.28;7001340;28;20682;-70
2021/01/04 01:28:28;;;;;;;24.97;19.43;;;;;;;2.54;62.94;94729.72;7025200;28;20248;-71
2021/01/04 01:32:01;;;;;;;25.43;19.30;;;;;;;2.54;63.47;94740.22;7010210;28;20739;-69
2021/01/04 01:35:27;;;;;;;25.63;19.57;;;;;;;2.58;62.81;94741.69;7037757;28;20213;-71
2021/01/04 01:39:23;;;;;;;24.77;19.37;;;;;;;2.58;63.27;94744.31;7012227;28;20207;-71
2021/01/04 01:43:05;;;;;;;27.53;20.90;;;;;;;2.58;63.01;94744.31;6976434;28;20240;-71
2021/01/04 01:46:39;;;;;;;23.33;17.33;;;;;;;2.59;62.83;94746.00;7024235;28;20677;-70
2021/01/04 01:50:05;;;;;;;25.47;19.47;;;;;;;2.61;63.31;94749.38;7034071;28;20230;-70
2021/01/04 01:53:38;;;;;;;22.47;17.87;;;;;;;2.65;62.62;94744.75;7029699;28;20249;-70
2021/01/04 01:57:14;;;;;;;22.70;17.73;;;;;;;2.56;62.99;94733.94;7023910;28;20214;-70
2021/01/04 02:00:48;;;;;;;23.10;19.00;;;;;;;2.48;62.61;94727.50;7022468;28;20211;-70
2021/01/04 02:04:20;;;;;;;24.73;18.57;;;;;;;2.50;63.09;94720.41;6985455;28;20241;-70
2021/01/04 02:08:00;;;;;;;24.77;18.87;;;;;;;2.48;63.03;94730.13;7002447;28;20230;-70
2021/01/04 02:11:42;;;;;;;25.43;19.37;;;;;;;2.49;63.04;94726.56;7022030;28;20273;-71
2021/01/04 02:15:20;;;;;;;24.77;19.53;;;;;;;2.47;63.06;94725.81;7024610;28;20238;-70
2021/01/04 02:19:27;;;;;;;26.13;19.63;;;;;;;2.40;63.19;94721.94;7000165;28;20232;-71
2021/01/04 02:23:16;;;;;;;25.50;19.53;;;;;;;2.35;62.86;94721.41;7022209;28;20214;-70
2021/01/04 02:26:50;;;;;;;23.80;18.73;;;;;;;2.32;63.22;94717.19;7023609;28;20301;-70
2021/01/04 02:30:11;;;;;;;24.73;19.27;;;;;;;2.30;62.63;94716.47;7000616;28;20221;-71
2021/01/04 02:33:32;;;;;;;23.53;18.50;;;;;;;2.28;62.42;94720.94;7020785;28;20220;-70
2021/01/04 02:36:55;;;;;;;24.43;18.40;;;;;;;2.29;62.85;94719.19;7000720;28;20671;-70
2021/01/04 02:40:15;;;;;;;25.23;19.00;;;;;;;2.27;62.51;94714.03;7023349;27;20905;-71
2021/01/04 02:43:36;;;;;;;22.70;17.97;;;;;;;2.23;62.73;94709.09;6989969;28;20696;-70
2021/01/04 02:47:08;;;;;;;24.13;18.40;;;;;;;2.17;62.08;94715.56;7040859;27;20221;-70
2021/01/04 02:50:43;;;;;;;26.17;18.37;;;;;;;2.09;62.16;94702.13;7028811;28;20227;-70
2021/01/04 02:54:21;;;;;;;25.20;20.07;;;;;;;1.98;62.23;94708.06;7013535;28;20242;-70
2021/01/04 02:57:49;;;;;;;26.33;18.83;;;;;;;1.94;62.29;94717.06;7002530;28;20210;-71
2021/01/04 03:01:32;;;;;;;25.73;20.40;;;;;;;1.93;62.64;94717.13;7000763;28;20215;-70
2021/01/04 03:04:53;;;;;;;27.43;19.33;;;;;;;1.93;62.57;94714.53;6998800;28;20222;-70
2021/01/04 03:08:13;;;;;;;28.93;21.37;;;;;;;2.00;62.80;94710.59;6975846;28;20313;-71
2021/01/04 03:11:36;;;;;;;27.10;21.13;;;;;;;2.05;62.80;94717.22;7016859;28;20206;-70
2021/01/04 03:15:15;;;;;;;27.87;20.87;;;;;;;2.08;62.71;94718.78;7018505;28;20224;-71
2021/01/04 03:18:45;;;;;;;28.00;19.83;;;;;;;2.09;62.64;94715.22;7005985;28;20341;-71
2021/01/04 03:22:10;;;;;;;26.50;20.23;;;;;;;2.06;62.89;94715.44;7022697;27;20218;-71
2021/01/04 03:25:38;;;;;;;27.23;19.60;;;;;;;2.04;63.16;94715.53;7007869;28;20254;-71
2021/01/04 03:28:59;;;;;;;26.53;19.50;;;;;;;2.06;63.49;94715.44;7005592;28;20209;-71
2021/01/04 03:32:19;;;;;;;28.07;20.47;;;;;;;2.12;63.17;94712.41;7022992;28;20289;-70
2021/01/04 03:35:40;;;;;;;26.47;19.27;;;;;;;2.12;63.17;94710.63;7001520;28;20214;-71
2021/01/04 03:39:00;;;;;;;26.40;20.33;;;;;;;2.15;63.01;94709.59;6986931;28;20223;-71
2021/01/04 03:42:21;;;;;;;28.07;20.13;;;;;;;2.17;62.80;94705.09;6990594;28;20219;-70
2021/01/04 03:45:41;;;;;;;26.60;19.60;;;;;;;2.17;62.74;94699.84;6979370;28;20216;-71
2021/01/04 03:49:01;;;;;;;24.70;19.17;;;;;;;2.10;63.08;94691.56;6993222;28;20228;-71
2021/01/04 03:52:25;;;;;;;27.00;19.90;;;;;;;2.05;62.89;94691.03;6995555;28;20935;-70
2021/01/04 03:55:45;;;;;;;27.30;20.57;;;;;;;2.00;63.41;94693.09;7022446;27;20224;-70
2021/01/04 03:59:08;;;;;;;26.87;21.20;;;;;;;1.97;63.45;94690.66;7004584;28;20215;-71
2021/01/04 04:02:28;;;;;;;28.07;20.37;;;;;;;1.95;62.84;94692.56;7013773;28;20226;-70
2021/01/04 04:05:49;;;;;;;30.07;21.03;;;;;;;1.94;63.24;94690.88;6992142;28;20233;-70
2021/01/04 04:09:12;;;;;;;27.07;19.67;;;;;;;1.98;63.08;94699.34;6987664;28;20639;-71
2021/01/04 04:12:33;;;;;;;26.07;19.67;;;;;;;1.99;62.63;94698.41;6996630;28;20277;-70
2021/01/04 04:15:55;;;;;;;26.50;19.73;;;;;;;2.06;63.23;94705.78;7006085;28;20230;-70
2021/01/04 04:19:16;;;;;;;24.90;19.50;;;;;;;2.10;62.84;94707.28;6994888;28;20228;-70
2021/01/04 04:22:37;;;;;;;23.10;18.50;;;;;;;2.09;62.50;94702.13;6991387;28;20211;-70
2021/01/04 04:25:57;;;;;;;25.33;19.07;;;;;;;2.05;62.30;94708.50;6987909;28;20223;-70
2021/01/04 04:29:18;;;;;;;28.53;20.70;;;;;;;2.00;62.46;94703.56;6975691;28;20216;-70
2021/01/04 04:32:38;;;;;;;26.90;20.67;;;;;;;1.96;62.54;94703.88;6972248;28;20215;-70
2021/01/04 04:35:58;;;;;;;27.53;19.60;;;;;;;1.95;62.58;94699.56;6990408;28;20243;-71
2021/01/04 04:39:19;;;;;;;27.33;20.43;;;;;;;1.92;62.69;94700.59;6983802;28;20207;-71
2021/01/04 04:42:40;;;;;;;28.33;20.33;;;;;;;1.89;62.65;94692.94;6996634;28;20239;-71
2021/01/04 04:46:03;;;;;;;26.40;20.37;;;;;;;1.91;62.89;94695.47;6986724;28;20284;-71
2021/01/04 04:49:46;;;;;;;27.20;21.00;;;;;;;1.95;62.76;94695.19;6982860;28;20220;-71
2021/01/04 04:53:37;;;;;;;26.17;19.90;;;;;;;1.98;62.85;94694.97;6971560;28;20238;-71
2021/01/04 04:57:07;;;;;;;30.97;20.90;;;;;;;2.02;63.09;94699.06;6993968;28;20215;-71
2021/01/04 05:00:39;;;;;;;27.40;20.37;;;;;;;2.03;62.55;94695.50;6999384;28;20260;-71
2021/01/04 05:04:02;;;;;;;30.57;22.10;;;;;;;2.03;62.70;94689.44;7008207;28;20305;-71
2021/01/04 05:07:27;;;;;;;29.77;21.17;;;;;;;2.01;63.09;94688.72;7007829;28;20228;-70
2021/01/04 05:10:49;;;;;;;28.00;20.17;;;;;;;2.00;62.96;94697.50;7002162;28;20218;-69
2021/01/04 05:14:24;;;;;;;28.27;20.57;;;;;;;2.02;63.25;94693.81;7001413;28;20213;-71
2021/01/04 05:18:14;;;;;;;29.43;21.10;;;;;;;2.06;63.08;94695.31;6986775;28;20234;-70
2021/01/04 05:22:12;;;;;;;30.00;21.57;;;;;;;2.12;62.81;94699.31;7004897;28;20290;-70
2021/01/04 05:25:45;;;;;;;30.57;22.37;;;;;;;2.24;63.01;94697.69;6985580;28;20225;-70
2021/01/04 05:29:11;;;;;;;28.70;21.20;;;;;;;2.31;63.01;94696.34;6984232;28;20207;-70
2021/01/04 05:33:28;;;;;;;28.47;20.00;;;;;;;2.27;62.46;94698.31;6985854;28;20234;-70
2021/01/04 05:36:57;;;;;;;30.03;21.70;;;;;;;2.28;62.53;94700.00;6944902;28;20735;-69
2021/01/04 05:40:42;;;;;;;36.73;24.80;;;;;;;2.33;62.62;94708.38;6970387;28;20215;-71
2021/01/04 05:44:19;;;;;;;30.73;22.60;;;;;;;2.37;62.86;94711.63;7005187;28;20688;-71
2021/01/04 05:47:55;;;;;;;31.83;23.13;;;;;;;2.38;62.65;94702.84;7019165;28;20267;-70
2021/01/04 05:51:30;;;;;;;26.87;20.13;;;;;;;2.39;62.62;94701.91;7001855;28;20635;-71
2021/01/04 05:54:52;;;;;;;27.77;20.93;;;;;;;2.38;62.68;94705.47;6980574;28;20600;-70
2021/01/04 05:58:18;;;;;;;28.93;20.87;;;;;;;2.21;62.51;94705.75;6991643;28;20208;-69
2021/01/04 06:01:45;;;;;;;29.57;20.23;;;;;;;2.14;62.87;94706.13;6990145;28;20283;-70
2021/01/04 06:05:09;;;;;;;27.87;21.03;;;;;;;2.24;63.41;94706.38;6988796;28;20219;-70
2021/01/04 06:08:30;;;;;;;29.63;21.13;;;;;;;2.32;63.09;94705.88;7013605;27;20285;-70
2021/01/04 06:11:56;;;;;;;30.20;22.50;;;;;;;2.41;63.00;94715.78;6985285;28;20218;-71
2021/01/04 06:15:27;;;;;;;30.63;21.80;;;;;;;2.50;63.51;94712.53;6995499;28;20227;-70
2021/01/04 06:18:51;;;;;;;30.67;22.53;;;;;;;2.55;63.08;94713.91;6991944;28;20215;-70
2021/01/04 06:22:13;;;;;;;28.53;21.17;;;;;;;2.62;62.63;94713.47;6997030;28;20251;-70
2021/01/04 06:25:33;;;;;;;28.30;20.77;;;;;;;2.67;62.73;94714.03;6996510;28;20226;-69
2021/01/04 06:29:00;;;;;;;33.03;23.63;;;;;;;2.71;62.63;94718.97;6998897;28;20210;-69
2021/01/04 06:32:20;;;;;;;30.27;23.03;;;;;;;2.71;62.75;94713.75;6976671;28;20215;-70
2021/01/04 06:35:41;;;;;;;30.43;21.97;;;;;;;2.73;62.63;94716.22;7003197;28;20245;-70
2021/01/04 06:39:11;;;;;;;31.83;22.47;;;;;;;2.72;62.62;94712.78;6987731;28;20238;-69
2021/01/04 06:42:40;;;;;;;29.27;20.73;;;;;;;2.72;62.07;94709.31;7010319;28;20222;-69
2021/01/04 06:46:13;;;;;;;26.47;19.63;;;;;;;2.75;62.77;94711.75;7010626;28;20310;-70
2021/01/04 06:49:52;;;;;;;29.37;21.67;;;;;;;2.78;62.62;94706.28;7010886;28;20227;-70
2021/01/04 06:53:28;;;;;;;26.43;19.00;;;;;;;2.80;62.53;94710.50;6998656;28;20284;-69
2021/01/04 06:57:07;;;;;;;32.03;23.43;;;;;;;2.82;62.31;94705.97;6995490;28;20637;-70
2021/01/04 07:00:34;;;;;;;28.57;21.50;;;;;;;2.83;62.29;94712.06;6978911;28;20238;-71
2021/01/04 07:04:05;;;;;;;29.70;22.00;;;;;;;2.76;62.35;94714.28;6993937;28;20218;-70
2021/01/04 07:07:59;;;;;;;32.67;21.63;;;;;;;2.74;62.34;94710.06;6987940;28;20229;-70
2021/01/04 07:11:31;;;;;;;31.63;22.37;;;;;;;2.70;62.58;94709.44;6992641;28;20331;-70
2021/01/04 07:15:19;;;;;;;30.03;20.43;;;;;;;2.61;63.00;94712.66;6983481;28;20316;-71
2021/01/04 07:18:54;;;;;;;31.93;23.30;;;;;;;2.62;63.14;94706.47;6991982;28;20714;-70
2021/01/04 07:22:18;;;;;;;32.90;23.80;;;;;;;2.67;63.10;94709.63;6974623;28;20224;-70
2021/01/04 07:25:51;;;;;;;34.33;23.97;;;;;;;2.74;63.07;94712.69;6986350;28;20588;-70
2021/01/04 07:29:21;;;;;;;81.77;48.43;;;;;;;2.73;63.16;94713.63;6967260;28;20223;-69
2021/01/04 07:32:50;;;;;;;32.17;22.93;;;;;;;2.70;62.53;94717.28;6989562;28;20209;-70
2021/01/04 07:36:32;;;;;;;35.00;26.63;;;;;;;2.72;63.19;94719.78;6989700;28;20226;-69
2021/01/04 07:40:09;;;;;;;33.00;21.77;;;;;;;2.67;62.82;94711.41;6992012;28;20846;-69
2021/01/04 07:44:06;;;;;;;34.37;21.93;;;;;;;2.65;63.12;94716.75;7004466;28;20311;-68
2021/01/04 07:47:44;;;;;;;27.53;19.77;;;;;;;2.67;63.06;94717.47;7003487;28;20243;-69
2021/01/04 07:51:42;;;;;;;31.10;21.23;;;;;;;2.69;63.00;94722.63;6994669;28;20219;-68
2021/01/04 07:55:27;;;;;;;31.97;21.97;;;;;;;2.71;63.52;94720.75;6967365;28;20266;-69
2021/01/04 07:59:15;;;;;;;31.03;22.50;;;;;;;2.77;63.80;94725.56;6980477;28;20232;-69
2021/01/04 08:03:03;;;;;;;34.47;24.60;;;;;;;2.83;63.66;94725.16;6982997;28;20295;-69
2021/01/04 08:06:48;;;;;;;31.90;22.93;;;;;;;2.86;63.42;94717.13;6996602;28;20285;-68
2021/01/04 08:10:27;;;;;;;28.17;20.80;;;;;;;2.92;63.62;94719.31;6992077;28;20225;-70
2021/01/04 08:14:11;;;;;;;27.90;22.13;;;;;;;3.00;63.51;94715.22;6977905;28;20314;-69
2021/01/04 08:17:44;;;;;;;30.13;22.33;;;;;;;3.11;63.03;94718.91;6983347;28;20223;-69
2021/01/04 08:21:07;;;;;;;29.27;21.60;;;;;;;3.15;62.53;94717.75;6996728;28;20225;-68
2021/01/04 08:24:37;;;;;;;28.87;20.90;;;;;;;3.08;62.65;94729.59;6980552;28;20661;-69
2021/01/04 08:28:17;;;;;;;27.87;20.70;;;;;;;3.05;62.44;94727.19;7001815;28;20310;-64
2021/01/04 08:31:38;;;;;;;28.00;20.77;;;;;;;3.00;63.03;94722.25;7004568;28;20207;-69
2021/01/04 08:35:14;;;;;;;30.93;22.07;;;;;;;3.02;63.38;94725.59;7004465;28;20234;-69
2021/01/04 08:38:38;;;;;;;31.90;21.90;;;;;;;3.10;63.22;94720.69;6997399;28;20280;-68
2021/01/04 08:42:04;;;;;;;27.53;19.90;;;;;;;3.20;63.03;94719.13;7006957;28;20312;-66
2021/01/04 08:45:45;;;;;;;30.27;21.63;;;;;;;3.26;62.88;94721.34;6996792;28;20224;-69
2021/01/04 08:49:26;;;;;;;28.80;20.03;;;;;;;3.28;62.39;94719.41;7002191;28;20717;-69
2021/01/04 08:52:49;;;;;;;29.07;21.93;;;;;;;3.30;62.19;94714.06;6963427;28;20216;-69
2021/01/04 08:56:32;;;;;;;31.00;21.63;;;;;;;3.32;62.46;94707.75;6989011;28;20235;-68
2021/01/04 08:59:54;;;;;;;31.20;21.60;;;;;;;3.36;62.56;94703.16;6994280;28;20224;-69
2021/01/04 09:03:20;;;;;;;31.33;22.90;;;;;;;3.38;62.79;94699.47;6995994;28;20251;-68
2021/01/04 09:06:42;;;;;;;29.33;20.87;;;;;;;3.43;62.45;94701.78;6982609;28;20611;-70
2021/01/04 09:10:17;;;;;;;29.90;21.33;;;;;;;3.50;62.45;94699.56;6995801;28;20565;-69
2021/01/04 09:13:39;;;;;;;27.77;21.17;;;;;;;3.54;62.37;94696.63;7001298;28;20215;-69
2021/01/04 09:16:59;;;;;;;33.00;23.10;;;;;;;3.57;62.50;94699.00;6970495;28;20710;-68
2021/01/04 09:20:25;;;;;;;30.93;22.13;;;;;;;3.62;61.93;94704.78;6961527;28;20239;-69
2021/01/04 09:23:45;;;;;;;27.77;21.67;;;;;;;3.64;61.94;94705.53;6975741;28;20262;-68
2021/01/04 09:27:35;;;;;;;30.17;22.47;;;;;;;3.71;62.14;94703.31;6976586;28;20609;-68
2021/01/04 09:30:56;;;;;;;31.03;22.50;;;;;;;3.72;61.58;94702.38;6989108;28;20239;-68
2021/01/04 09:34:17;;;;;;;30.60;23.57;;;;;;;3.69;61.37;94699.94;7010862;28;20217;-69
2021/01/04 09:37:38;;;;;;;34.27;25.30;;;;;;;3.68;61.58;94703.50;7006212;28;20238;-68
2021/01/04 09:41:09;;;;;;;37.77;25.40;;;;;;;3.70;61.83;94701.63;7006539;28;21311;-68
2021/01/04 09:44:30;;;;;;;29.07;22.27;;;;;;;3.72;61.54;94695.31;7019914;28;20302;-69
2021/01/04 09:47:53;;;;;;;31.40;23.33;;;;;;;3.71;61.46;94701.53;7008137;28;20228;-68
2021/01/04 09:51:17;;;;;;;31.03;23.93;;;;;;;3.68;61.83;94696.47;7015535;28;20301;-68
2021/01/04 09:54:45;;;;;;;34.50;22.10;;;;;;;3.70;62.13;94693.75;6986639;28;20309;-68
2021/01/04 09:58:06;;;;;;;31.57;23.80;;;;;;;3.68;61.44;94685.97;7003592;28;20766;-70
2021/01/04 10:01:26;;;;;;;33.17;23.80;;;;;;;3.67;61.79;94684.28;7016028;28;20231;-68
2021/01/04 10:04:47;;;;;;;32.00;23.07;;;;;;;3.71;61.91;94684.94;7014943;28;20226;-68
2021/01/04 10:08:14;;;;;;;32.20;23.07;;;;;;;3.72;61.42;94676.13;7015900;28;20309;-68
2021/01/04 10:11:35;;;;;;;32.37;22.90;;;;;;;3.71;61.19;94674.44;6994924;28;20295;-69
2021/01/04 10:15:02;;;;;;;33.47;23.17;;;;;;;3.70;61.72;94676.22;7008640;28;20218;-69
2021/01/04 10:18:55;;;;;;;29.37;22.87;;;;;;;3.74;61.76;94671.56;7013466;28;20698;-68
2021/01/04 10:22:20;;;;;;;32.30;23.10;;;;;;;3.78;61.32;94670.41;7009740;28;20216;-69
2021/01/04 10:25:49;;;;;;;28.70;21.97;;;;;;;3.79;61.40;94662.44;6989291;28;20729;-68
2021/01/04 10:29:13;;;;;;;34.27;24.87;;;;;;;3.81;61.35;94657.91;7004679;28;20224;-69
2021/01/04 10:32:37;;;;;;;33.67;23.83;;;;;;;3.85;61.42;94658.53;7001150;28;20223;-69
2021/01/04 10:35:59;;;;;;;28.83;21.80;;;;;;;3.89;61.65;94652.94;7016177;28;20249;-68
2021/01/04 10:39:23;;;;;;;28.63;23.27;;;;;;;3.96;61.67;94653.34;7012529;28;20271;-69
2021/01/04 10:42:45;;;;;;;34.93;25.03;;;;;;;3.95;61.13;94651.66;7017783;28;20231;-68
2021/01/04 10:46:35;;;;;;;32.97;23.43;;;;;;;3.95;61.49;94651.66;6991381;28;20611;-68
2021/01/04 10:50:24;;;;;;;31.17;22.67;;;;;;;3.87;61.38;94643.50;6989168;28;20217;-70
2021/01/04 10:53:45;;;;;;;34.47;24.50;;;;;;;3.87;61.26;94643.50;6992120;28;20698;-69
2021/01/04 10:57:08;;;;;;;28.50;20.87;;;;;;;3.86;61.03;94634.78;7005344;28;20239;-68
2021/01/04 11:00:32;;;;;;;24.93;18.70;;;;;;;3.91;61.21;94638.84;7021395;28;20224;-69
2021/01/04 11:03:56;;;;;;;31.10;21.13;;;;;;;3.87;60.34;94631.19;7025420;28;20244;-68
2021/01/04 11:07:30;;;;;;;32.33;22.60;;;;;;;3.84;61.03;94638.47;7013488;28;20220;-68
2021/01/04 11:11:19;;;;;;;29.93;21.70;;;;;;;3.88;60.65;94632.03;7014442;28;20304;-67
2021/01/04 11:14:51;;;;;;;30.23;21.93;;;;;;;3.94;60.79;94625.50;7023286;28;20219;-69
2021/01/04 11:18:12;;;;;;;28.10;22.00;;;;;;;3.89;60.51;94624.03;7007204;28;20618;-68
2021/01/04 11:21:37;;;;;;;27.53;20.13;;;;;;;3.99;61.19;94623.38;7006890;28;20766;-68
2021/01/04 11:24:57;;;;;;;24.47;16.43;;;;;;;4.00;59.65;94625.06;7000812;28;20661;-68
2021/01/04 11:28:17;;;;;;;24.37;18.50;;;;;;;3.89;59.18;94615.31;6995510;28;20777;-68
2021/01/04 11:31:38;;;;;;;24.80;18.10;;;;;;;3.85;59.18;94611.25;7008385;28;20224;-68
2021/01/04 11:35:01;;;;;;;24.17;18.00;;;;;;;3.87;59.06;94606.75;7000676;28;20229;-68
2021/01/04 11:38:22;;;;;;;23.93;18.57;;;;;;;3.85;59.41;94606.84;7015090;28;20216;-68
2021/01/04 11:41:43;;;;;;;25.83;19.70;;;;;;;3.82;59.28;94604.41;7011707;28;20272;-68
2021/01/04 11:45:08;;;;;;;24.10;18.30;;;;;;;3.85;59.22;94604.22;6995473;28;20232;-69
2021/01/04 11:48:28;;;;;;;29.83;21.13;;;;;;;3.80;59.08;94602.88;7006643;28;20228;-69
2021/01/04 11:51:53;;;;;;;24.67;19.00;;;;;;;3.67;59.33;94597.66;6971845;28;20274;-69
2021/01/04 11:55:14;;;;;;;24.43;17.97;;;;;;;3.56;59.24;94599.41;7007690;28;20213;-69
2021/01/04 11:58:39;;;;;;;25.37;18.43;;;;;;;3.55;59.98;94595.09;6992787;28;20692;-68
2021/01/04 12:01:59;;;;;;;30.77;20.90;;;;;;;3.59;60.17;94584.25;7008627;28;20600;-69
2021/01/04 12:05:20;;;;;;;28.50;21.13;;;;;;;3.62;59.93;94586.66;7014729;28;20911;-68
2021/01/04 12:08:40;;;;;;;31.27;24.40;;;;;;;3.66;59.96;94584.66;7020495;28;20345;-67
2021/01/04 12:12:01;;;;;;;27.17;20.10;;;;;;;3.66;59.78;94580.25;6991975;28;21022;-68
2021/01/04 12:15:22;;;;;;;21.17;17.47;;;;;;;3.62;59.53;94578.78;7032001;28;20213;-68
2021/01/04 12:18:43;;;;;;;25.40;19.07;;;;;;;3.59;60.05;94580.78;7000837;28;20223;-66
2021/01/04 12:22:06;;;;;;;29.83;19.70;;;;;;;3.60;60.11;94574.59;7009349;28;20223;-68
2021/01/04 12:25:26;;;;;;;24.93;19.03;;;;;;;3.52;60.40;94572.50;7016484;28;20234;-68
2021/01/04 12:28:46;;;;;;;25.37;19.43;;;;;;;3.44;60.52;94564.34;6995976;28;20228;-67
2021/01/04 12:32:07;;;;;;;24.87;19.80;;;;;;;3.34;60.54;94565.97;7005973;27;20306;-67
2021/01/04 12:35:30;;;;;;;25.83;19.07;;;;;;;3.30;61.15;94564.50;7017768;28;20221;-68
2021/01/04 12:38:51;;;;;;;23.80;19.27;;;;;;;3.29;60.54;94568.09;7006639;28;20264;-68
2021/01/04 12:42:11;;;;;;;23.90;18.67;;;;;;;3.27;60.94;94570.81;6994814;28;20303;-68
2021/01/04 12:45:32;;;;;;;22.83;17.90;;;;;;;3.24;60.68;94562.31;7013946;28;20651;-68
2021/01/04 12:48:54;;;;;;;23.60;18.63;;;;;;;3.26;60.90;94561.28;7019729;28;20603;-68
2021/01/04 12:52:17;;;;;;;22.57;18.30;;;;;;;3.33;61.14;94559.03;6995070;28;20227;-68
2021/01/04 12:55:37;;;;;;;21.23;16.60;;;;;;;3.33;60.28;94553.78;7025072;27;20689;-68
2021/01/04 12:58:58;;;;;;;21.67;17.77;;;;;;;3.36;60.55;94553.59;7023718;27;20274;-67
2021/01/04 13:02:20;;;;;;;23.90;17.60;;;;;;;3.41;60.52;94549.69;7003940;28;20225;-68
2021/01/04 13:05:41;;;;;;;21.40;18.07;;;;;;;3.44;61.10;94543.38;7024765;28;20267;-67
2021/01/04 13:09:03;;;;;;;25.93;19.20;;;;;;;3.47;60.89;94543.13;6980847;27;20264;-68
2021/01/04 13:12:23;;;;;;;25.07;17.60;;;;;;;3.53;60.73;94541.84;6998491;28;20294;-67
2021/01/04 13:15:44;;;;;;;23.20;18.33;;;;;;;3.50;60.44;94536.84;7024211;28;20230;-68
2021/01/04 13:19:05;;;;;;;25.30;18.73;;;;;;;3.46;60.63;94538.84;7003577;28;20228;-68
2021/01/04 13:22:26;;;;;;;23.67;18.03;;;;;;;3.44;60.83;94540.75;7018704;28;20226;-67
2021/01/04 13:25:46;;;;;;;25.33;18.10;;;;;;;3.37;60.95;94540.34;7005167;28;20682;-67
2021/01/04 13:29:08;;;;;;;23.80;18.67;;;;;;;3.32;60.77;94539.00;7010842;28;20232;-68
2021/01/04 13:32:28;;;;;;;22.97;17.93;;;;;;;3.33;61.28;94540.66;7004430;28;20280;-68
2021/01/04 13:35:49;;;;;;;22.80;18.30;;;;;;;3.29;61.28;94534.81;7008166;28;20228;-68
2021/01/04 13:39:09;;;;;;;24.60;18.60;;;;;;;3.28;61.05;94537.53;7009720;28;20273;-67
2021/01/04 13:42:29;;;;;;;21.47;17.33;;;;;;;3.22;60.78;94536.19;7018190;28;20207;-68
2021/01/04 13:45:50;;;;;;;24.17;17.90;;;;;;;3.17;60.99;94537.50;7004871;28;20704;-68
2021/01/04 13:49:12;;;;;;;26.27;19.40;;;;;;;3.14;61.80;94530.66;7006148;28;20223;-67
2021/01/04 13:52:35;;;;;;;22.20;17.33;;;;;;;3.17;61.81;94532.25;6999442;28;20252;-68
2021/01/04 13:55:58;;;;;;;23.63;19.03;;;;;;;3.13;61.21;94538.63;6994084;28;20277;-67
2021/01/04 13:59:20;;;;;;;27.23;20.83;;;;;;;3.15;61.98;94536.75;7008116;28;20229;-67
2021/01/04 14:02:40;;;;;;;23.70;18.50;;;;;;;3.17;61.77;94543.53;7028792;28;20221;-67
2021/01/04 14:06:01;;;;;;;24.17;19.00;;;;;;;3.20;62.34;94545.97;7011599;28;20220;-68
2021/01/04 14:09:24;;;;;;;25.70;19.10;;;;;;;3.23;62.16;94540.50;7019172;27;20212;-68
2021/01/04 14:12:44;;;;;;;26.97;19.80;;;;;;;3.23;61.60;94545.75;7006497;28;20220;-68
2021/01/04 14:16:05;;;;;;;24.13;18.40;;;;;;;3.23;61.55;94537.88;7027128;28;20216;-67
2021/01/04 14:19:25;;;;;;;25.70;20.33;;;;;;;3.21;61.49;94547.66;7004672;28;20220;-68
2021/01/04 14:22:46;;;;;;;25.30;19.73;;;;;;;3.21;61.94;94552.06;6978942;28;20566;-68
2021/01/04 14:26:06;;;;;;;25.60;20.23;;;;;;;3.24;62.11;94543.94;6995580;28;20224;-68
2021/01/04 14:29:26;;;;;;;24.73;19.33;;;;;;;3.29;62.17;94539.22;6972195;28;20578;-68
2021/01/04 14:32:47;;;;;;;24.47;19.03;;;;;;;3.30;62.10;94548.78;7000271;28;20303;-67
2021/01/04 14:36:07;;;;;;;25.77;18.40;;;;;;;3.21;62.03;94549.44;6967984;28;20223;-67
2021/01/04 14:39:31;;;;;;;24.00;18.03;;;;;;;3.20;62.32;94548.59;7007740;27;20220;-67
2021/01/04 14:42:58;;;;;;;25.10;19.17;;;;;;;3.28;62.06;94555.91;7009988;28;20270;-68
2021/01/04 14:46:23;;;;;;;25.13;19.10;;;;;;;3.29;61.74;94545.31;7013404;28;20240;-68
2021/01/04 14:49:45;;;;;;;24.40;18.77;;;;;;;3.33;62.02;94548.53;7014968;28;20245;-67
2021/01/04 14:53:05;;;;;;;24.23;18.23;;;;;;;3.31;62.13;94547.81;7010500;28;20241;-68
2021/01/04 14:56:27;;;;;;;22.70;18.50;;;;;;;3.28;62.08;94548.88;7023074;27;20216;-68
2021/01/04 14:59:48;;;;;;;25.10;20.10;;;;;;;3.29;61.76;94557.59;7024669;27;20671;-68
2021/01/04 15:03:11;;;;;;;24.00;18.67;;;;;;;3.26;61.76;94548.16;7031318;28;20702;-67
2021/01/04 15:06:31;;;;;;;24.57;19.33;;;;;;;3.27;62.23;94549.00;7009046;28;20231;-68
2021/01/04 15:09:54;;;;;;;23.00;18.57;;;;;;;3.24;61.85;94543.94;7024154;28;20226;-67
2021/01/04 15:13:14;;;;;;;21.57;17.13;;;;;;;3.19;61.50;94546.91;7019263;28;20220;-69
2021/01/04 15:16:46;;;;;;;26.20;20.20;;;;;;;3.15;61.89;94544.63;7022137;28;20227;-69
2021/01/04 15:20:08;;;;;;;24.50;18.83;;;;;;;3.10;62.38;94547.56;7013369;28;20228;-68
2021/01/04 15:23:29;;;;;;;21.77;17.30;;;;;;;3.14;61.87;94548.19;6994964;27;20229;-68
2021/01/04 15:26:49;;;;;;;21.80;17.30;;;;;;;3.13;61.52;94543.88;7021537;28;20231;-67
2021/01/04 15:30:10;;;;;;;23.97;18.47;;;;;;;3.14;62.05;94545.56;6990940;28;20240;-68
2021/01/04 15:33:30;;;;;;;25.07;19.07;;;;;;;3.15;62.14;94550.69;7022265;28;20225;-68
2021/01/04 15:36:53;;;;;;;22.73;18.03;;;;;;;3.17;62.29;94548.78;7012945;28;20337;-67
2021/01/04 15:40:15;;;;;;;22.83;18.20;;;;;;;3.14;61.94;94549.03;7017957;28;20256;-67
2021/01/04 15:43:35;;;;;;;23.80;17.63;;;;;;;3.14;61.73;94545.56;6996608;28;20223;-68
2021/01/04 15:46:56;;;;;;;21.97;17.07;;;;;;;3.11;61.33;94549.25;7023867;27;20635;-67
2021/01/04 15:50:16;;;;;;;23.67;17.77;;;;;;;3.14;61.65;94548.19;7033078;28;20226;-68
2021/01/04 15:53:37;;;;;;;22.40;18.27;;;;;;;3.15;62.08;94557.72;7027554;28;20696;-68
2021/01/04 15:56:59;;;;;;;22.40;17.27;;;;;;;3.10;61.75;94549.34;6975211;28;20235;-68
2021/01/04 16:00:20;;;;;;;23.37;17.20;;;;;;;3.02;61.40;94555.97;6999102;28;20307;-67
2021/01/04 16:03:40;;;;;;;23.30;18.03;;;;;;;2.98;61.93;94541.41;7005095;28;20595;-68
2021/01/04 16:07:01;;;;;;;22.47;17.53;;;;;;;3.05;62.04;94540.97;6988092;28;20225;-68